Maria Leontina — CUTI — position and weather

sailwx.info

Track history (hours):
 
Tides and Currents Weather Stations Pressure Air Temp Water Temp Dewpoint Dewpoint Depression Visibility Wind Speed Wind Dir Waves Ship Positions

Maria Leontina

Last reported at 2017-Aug-23 00:39 UTC. Time now 2017-Sep-19 17:21 UTC.
Position N 32°41' W 016°47'.
Warning: this ship's position is 27 days out of date.

Length 500 m.

Type: Fishing. MMSI: 204827000.

Date/timePositionNaut miles runAvg speedWind from/ knotsBaromVisibWave heightAir tempDewpointWater temp
2017-Aug-23 00:39N 32°41' W 016°47'0 0.1
2017-Aug-23 00:28N 32°41' W 016°47'0 1.0
2017-Aug-23 00:00N 32°41' W 016°48'4 0.7
2017-Aug-22 18:05N 32°44' W 016°44'0 0.0
2017-Aug-22 18:01N 32°44' W 016°44'0 0.0
2017-Aug-22 17:30N 32°44' W 016°44'0 0.0
2017-Aug-22 16:58N 32°44' W 016°44'0 0.0
2017-Aug-22 16:30N 32°44' W 016°44'0 0.0
2017-Aug-22 16:00N 32°44' W 016°44'0 0.0
2017-Aug-22 13:56N 32°44' W 016°44'0 0.0
2017-Aug-22 12:03N 32°44' W 016°44'0 0.0
2017-Aug-22 11:33N 32°44' W 016°44'0 0.0
2017-Aug-22 11:24N 32°44' W 016°44'0 0.0
2017-Aug-22 10:59N 32°44' W 016°44'0 0.0
2017-Aug-22 10:30N 32°44' W 016°44'0 0.0
2017-Aug-22 10:00N 32°44' W 016°44'0 0.0
2017-Aug-22 08:49N 32°44' W 016°44'0 0.0
2017-Aug-22 07:15N 32°44' W 016°44'0 0.0
2017-Aug-22 06:59N 32°44' W 016°44'0 0.0
2017-Aug-22 06:30N 32°44' W 016°44'0 0.0
2017-Aug-22 06:00N 32°44' W 016°44'0 0.0
2017-Aug-22 05:29N 32°44' W 016°44'0 0.0
2017-Aug-22 04:58N 32°44' W 016°44'0 0.0
2017-Aug-22 04:01N 32°44' W 016°44'0 0.0
2017-Aug-22 03:58N 32°44' W 016°44'0 0.0
2017-Aug-22 00:13N 32°44' W 016°44'0 0.0
2017-Aug-21 23:03N 32°44' W 016°44'0 0.1
2017-Aug-21 23:00N 32°44' W 016°44'0 0.0
2017-Aug-21 22:20N 32°44' W 016°44'0 0.0
2017-Aug-21 21:05N 32°44' W 016°44'0 0.0
2017-Aug-21 20:46N 32°44' W 016°44'0 0.0
2017-Aug-21 20:28N 32°44' W 016°44'0 0.0
2017-Aug-21 19:28N 32°44' W 016°44'0 0.0
2017-Aug-21 18:59N 32°44' W 016°44'0 0.0
2017-Aug-21 18:30N 32°44' W 016°44'0 0.0
2017-Aug-21 18:00N 32°44' W 016°44'0 0.0
2017-Aug-21 17:30N 32°44' W 016°44'0 0.0
2017-Aug-21 16:58N 32°44' W 016°44'0 0.0
2017-Aug-21 16:30N 32°44' W 016°44'0 0.0
2017-Aug-21 15:43N 32°44' W 016°44'0 0.0
2017-Aug-21 14:46N 32°44' W 016°44'0 0.0
2017-Aug-21 14:26N 32°44' W 016°44'0 0.0
2017-Aug-21 11:55N 32°44' W 016°44'0 0.0
2017-Aug-21 11:30N 32°44' W 016°44'0 0.0
2017-Aug-21 11:00N 32°44' W 016°44'0 0.0
2017-Aug-21 10:30N 32°44' W 016°44'0 0.0
2017-Aug-21 09:45N 32°44' W 016°44'0 0.0
2017-Aug-21 09:27N 32°44' W 016°44'0 0.0
2017-Aug-21 08:58N 32°44' W 016°44'0 0.0
2017-Aug-21 08:30N 32°44' W 016°44'0 0.0
2017-Aug-21 08:00N 32°44' W 016°44'0 0.0
2017-Aug-21 07:30N 32°44' W 016°44'0 0.0
2017-Aug-21 07:00N 32°44' W 016°44'0 0.0
2017-Aug-21 06:30N 32°44' W 016°44'0 0.0
2017-Aug-21 05:56N 32°44' W 016°44'0 0.0
2017-Aug-21 00:53N 32°44' W 016°44'0 0.0
2017-Aug-21 00:30N 32°44' W 016°44'0 0.0
2017-Aug-20 23:46N 32°44' W 016°44'0 0.0
2017-Aug-20 23:29N 32°44' W 016°44'0 0.0
2017-Aug-20 23:00N 32°44' W 016°44'0 0.0
2017-Aug-20 22:30N 32°44' W 016°44'0 0.0
2017-Aug-20 21:54N 32°44' W 016°44'0 0.0
2017-Aug-20 21:28N 32°44' W 016°44'0 0.0
2017-Aug-20 20:43N 32°44' W 016°44'0 0.0
2017-Aug-20 20:29N 32°44' W 016°44'0 0.0
2017-Aug-20 17:10N 32°44' W 016°44'0 0.0
2017-Aug-20 01:48N 32°44' W 016°44'0 0.0
2017-Aug-20 01:27N 32°44' W 016°44'  
2017-Aug-17 15:37N 33°38' W 019°14'  
2017-Aug-13 07:30N 32°40' W 017°34'4 8.6
2017-Aug-13 07:00N 32°38' W 017°29'4 7.9
2017-Aug-13 06:30N 32°36' W 017°25'4 7.4
2017-Aug-13 06:00N 32°35' W 017°21'  
Track history (hours):
 
Tides and Currents Weather Stations Pressure Air Temp Water Temp Dewpoint Dewpoint Depression Visibility Wind Speed Wind Dir Waves Ship Positions

Maria Leontina

Last reported at 2017-Aug-23 00:39 UTC. Time now 2017-Sep-19 17:21 UTC.
Position N 32°41' W 016°47'.
Warning: this ship's position is 27 days out of date.

Length 500 m.

Type: Fishing. MMSI: 204827000.

Date/timePositionNaut miles runAvg speedWind from/ knotsBaromVisibWave heightAir tempDewpointWater temp
2017-Aug-23 00:39N 32°41' W 016°47'0 0.1
2017-Aug-23 00:28N 32°41' W 016°47'0 1.0
2017-Aug-23 00:00N 32°41' W 016°48'4 0.7
2017-Aug-22 18:05N 32°44' W 016°44'0 0.0
2017-Aug-22 18:01N 32°44' W 016°44'0 0.0
2017-Aug-22 17:30N 32°44' W 016°44'0 0.0
2017-Aug-22 16:58N 32°44' W 016°44'0 0.0
2017-Aug-22 16:30N 32°44' W 016°44'0 0.0
2017-Aug-22 16:00N 32°44' W 016°44'0 0.0
2017-Aug-22 13:56N 32°44' W 016°44'0 0.0
2017-Aug-22 12:03N 32°44' W 016°44'0 0.0
2017-Aug-22 11:33N 32°44' W 016°44'0 0.0
2017-Aug-22 11:24N 32°44' W 016°44'0 0.0
2017-Aug-22 10:59N 32°44' W 016°44'0 0.0
2017-Aug-22 10:30N 32°44' W 016°44'0 0.0
2017-Aug-22 10:00N 32°44' W 016°44'0 0.0
2017-Aug-22 08:49N 32°44' W 016°44'0 0.0
2017-Aug-22 07:15N 32°44' W 016°44'0 0.0
2017-Aug-22 06:59N 32°44' W 016°44'0 0.0
2017-Aug-22 06:30N 32°44' W 016°44'0 0.0
2017-Aug-22 06:00N 32°44' W 016°44'0 0.0
2017-Aug-22 05:29N 32°44' W 016°44'0 0.0
2017-Aug-22 04:58N 32°44' W 016°44'0 0.0
2017-Aug-22 04:01N 32°44' W 016°44'0 0.0
2017-Aug-22 03:58N 32°44' W 016°44'0 0.0
2017-Aug-22 00:13N 32°44' W 016°44'0 0.0
2017-Aug-21 23:03N 32°44' W 016°44'0 0.1
2017-Aug-21 23:00N 32°44' W 016°44'0 0.0
2017-Aug-21 22:20N 32°44' W 016°44'0 0.0
2017-Aug-21 21:05N 32°44' W 016°44'0 0.0
2017-Aug-21 20:46N 32°44' W 016°44'0 0.0
2017-Aug-21 20:28N 32°44' W 016°44'0 0.0
2017-Aug-21 19:28N 32°44' W 016°44'0 0.0
2017-Aug-21 18:59N 32°44' W 016°44'0 0.0
2017-Aug-21 18:30N 32°44' W 016°44'0 0.0
2017-Aug-21 18:00N 32°44' W 016°44'0 0.0
2017-Aug-21 17:30N 32°44' W 016°44'0 0.0
2017-Aug-21 16:58N 32°44' W 016°44'0 0.0
2017-Aug-21 16:30N 32°44' W 016°44'0 0.0
2017-Aug-21 15:43N 32°44' W 016°44'0 0.0
2017-Aug-21 14:46N 32°44' W 016°44'0 0.0
2017-Aug-21 14:26N 32°44' W 016°44'0 0.0
2017-Aug-21 11:55N 32°44' W 016°44'0 0.0
2017-Aug-21 11:30N 32°44' W 016°44'0 0.0
2017-Aug-21 11:00N 32°44' W 016°44'0 0.0
2017-Aug-21 10:30N 32°44' W 016°44'0 0.0
2017-Aug-21 09:45N 32°44' W 016°44'0 0.0
2017-Aug-21 09:27N 32°44' W 016°44'0 0.0
2017-Aug-21 08:58N 32°44' W 016°44'0 0.0
2017-Aug-21 08:30N 32°44' W 016°44'0 0.0
2017-Aug-21 08:00N 32°44' W 016°44'0 0.0
2017-Aug-21 07:30N 32°44' W 016°44'0 0.0
2017-Aug-21 07:00N 32°44' W 016°44'0 0.0
2017-Aug-21 06:30N 32°44' W 016°44'0 0.0
2017-Aug-21 05:56N 32°44' W 016°44'0 0.0
2017-Aug-21 00:53N 32°44' W 016°44'0 0.0
2017-Aug-21 00:30N 32°44' W 016°44'0 0.0
2017-Aug-20 23:46N 32°44' W 016°44'0 0.0
2017-Aug-20 23:29N 32°44' W 016°44'0 0.0
2017-Aug-20 23:00N 32°44' W 016°44'0 0.0
2017-Aug-20 22:30N 32°44' W 016°44'0 0.0
2017-Aug-20 21:54N 32°44' W 016°44'0 0.0
2017-Aug-20 21:28N 32°44' W 016°44'0 0.0
2017-Aug-20 20:43N 32°44' W 016°44'0 0.0
2017-Aug-20 20:29N 32°44' W 016°44'0 0.0
2017-Aug-20 17:10N 32°44' W 016°44'0 0.0
2017-Aug-20 01:48N 32°44' W 016°44'0 0.0
2017-Aug-20 01:27N 32°44' W 016°44'  
2017-Aug-17 15:37N 33°38' W 019°14'  
2017-Aug-13 07:30N 32°40' W 017°34'4 8.6
2017-Aug-13 07:00N 32°38' W 017°29'4 7.9
2017-Aug-13 06:30N 32°36' W 017°25'4 7.4
2017-Aug-13 06:00N 32°35' W 017°21'  

Dump ship's entire track history